< < Back
Terminal Aerodrome Forecast


Current Version              Previous Versions:   1  2  3  4  5  6  7  8  9  

Terminal Aerodrome Forecast

074
FTUS42 KFFC 110521
TAFAHN
TAF
KAHN 110521Z 1106/1206 28004KT P6SM SCT060
     FM111500 VRB03KT P6SM SCT050
     FM112300 VRB03KT P6SM SCT100
     FM120200 05003KT P6SM BKN040=



Latest METAR

943
SAUS70 KWBC 110800
MTRAHN
METAR KAHN 110751Z AUTO 25004KT 10SM CLR M02/M11 A3014 RMK AO2 SLP215
T10171106


USA.gov is the U.S. government's official web portal to all federal, state and local government web resources and services.